sensor_id;sensor_type;location;lat;lon;timestamp;pressure;altitude;pressure_sealevel;temperature;humidity
68656;BME280;55638;51.122;13.606;2023-07-31T00:00:42;99858.84;;;12.96;63.50
68656;BME280;55638;51.122;13.606;2023-07-31T00:02:14;99850.59;;;12.97;63.08
68656;BME280;55638;51.122;13.606;2023-07-31T00:03:46;99845.19;;;12.97;63.29
68656;BME280;55638;51.122;13.606;2023-07-31T00:05:18;99844.19;;;12.98;63.16
68656;BME280;55638;51.122;13.606;2023-07-31T00:06:50;99840.63;;;12.98;63.21
68656;BME280;55638;51.122;13.606;2023-07-31T00:08:22;99841.47;;;12.98;63.16
68656;BME280;55638;51.122;13.606;2023-07-31T00:09:54;99842.50;;;12.97;63.18
68656;BME280;55638;51.122;13.606;2023-07-31T00:11:28;99838.91;;;12.97;62.76
68656;BME280;55638;51.122;13.606;2023-07-31T00:13:00;99838.06;;;12.96;63.04
68656;BME280;55638;51.122;13.606;2023-07-31T00:14:32;99840.75;;;12.96;62.98
68656;BME280;55638;51.122;13.606;2023-07-31T00:16:04;99838.91;;;12.97;63.04
68656;BME280;55638;51.122;13.606;2023-07-31T00:17:36;99838.22;;;12.95;62.93
68656;BME280;55638;51.122;13.606;2023-07-31T00:19:08;99844.47;;;12.95;63.21
68656;BME280;55638;51.122;13.606;2023-07-31T00:20:40;99830.97;;;12.95;62.94
68656;BME280;55638;51.122;13.606;2023-07-31T00:22:15;99834.50;;;12.96;62.90
68656;BME280;55638;51.122;13.606;2023-07-31T00:23:47;99835.53;;;12.95;63.00
68656;BME280;55638;51.122;13.606;2023-07-31T00:25:19;99843.63;;;12.95;62.92
68656;BME280;55638;51.122;13.606;2023-07-31T00:26:50;99842.63;;;12.96;63.12
68656;BME280;55638;51.122;13.606;2023-07-31T00:28:22;99834.69;;;12.94;63.20
68656;BME280;55638;51.122;13.606;2023-07-31T00:29:54;99828.41;;;12.94;62.93
68656;BME280;55638;51.122;13.606;2023-07-31T00:31:26;99828.41;;;12.94;62.88
68656;BME280;55638;51.122;13.606;2023-07-31T00:32:59;99827.53;;;12.93;62.90
68656;BME280;55638;51.122;13.606;2023-07-31T00:34:31;99824.00;;;12.93;62.78
68656;BME280;55638;51.122;13.606;2023-07-31T00:36:03;99820.44;;;12.92;62.94
68656;BME280;55638;51.122;13.606;2023-07-31T00:37:35;99826.69;;;12.93;62.80
68656;BME280;55638;51.122;13.606;2023-07-31T00:39:07;99823.31;;;12.91;62.75
68656;BME280;55638;51.122;13.606;2023-07-31T00:40:39;99817.91;;;12.91;63.14
68656;BME280;55638;51.122;13.606;2023-07-31T00:42:11;99816.19;;;12.90;62.77
68656;BME280;55638;51.122;13.606;2023-07-31T00:43:43;99820.75;;;12.89;62.81
68656;BME280;55638;51.122;13.606;2023-07-31T00:45:15;99816.19;;;12.90;62.91
68656;BME280;55638;51.122;13.606;2023-07-31T00:46:48;99818.88;;;12.90;62.71
68656;BME280;55638;51.122;13.606;2023-07-31T00:48:20;99810.78;;;12.90;62.96
68656;BME280;55638;51.122;13.606;2023-07-31T00:49:52;99813.47;;;12.90;62.91
68656;BME280;55638;51.122;13.606;2023-07-31T00:54:01;99806.06;;;12.92;62.85
68656;BME280;55638;51.122;13.606;2023-07-31T00:55:34;99807.94;;;12.91;62.83
68656;BME280;55638;51.122;13.606;2023-07-31T00:57:06;99812.50;;;12.91;62.83
68656;BME280;55638;51.122;13.606;2023-07-31T00:58:40;99808.78;;;12.92;63.16
68656;BME280;55638;51.122;13.606;2023-07-31T01:00:12;99809.63;;;12.92;62.97
68656;BME280;55638;51.122;13.606;2023-07-31T01:01:44;99812.31;;;12.92;62.58
68656;BME280;55638;51.122;13.606;2023-07-31T01:03:17;99805.06;;;12.93;62.83
68656;BME280;55638;51.122;13.606;2023-07-31T01:04:49;99801.50;;;12.92;62.68
68656;BME280;55638;51.122;13.606;2023-07-31T01:06:33;99805.06;;;12.93;62.71
68656;BME280;55638;51.122;13.606;2023-07-31T01:08:32;99805.75;;;12.95;62.75
68656;BME280;55638;51.122;13.606;2023-07-31T01:10:11;99804.75;;;12.96;62.57
68656;BME280;55638;51.122;13.606;2023-07-31T01:11:52;99805.47;;;12.98;62.61
68656;BME280;55638;51.122;13.606;2023-07-31T01:13:24;99800.06;;;12.98;62.66
68656;BME280;55638;51.122;13.606;2023-07-31T01:15:07;99793.78;;;12.97;62.52
68656;BME280;55638;51.122;13.606;2023-07-31T01:16:43;99790.91;;;12.99;62.58
68656;BME280;55638;51.122;13.606;2023-07-31T01:18:16;99789.06;;;12.99;62.61
68656;BME280;55638;51.122;13.606;2023-07-31T01:19:49;99782.81;;;12.99;62.53
68656;BME280;55638;51.122;13.606;2023-07-31T01:25:10;99794.78;;;12.96;61.82
68656;BME280;55638;51.122;13.606;2023-07-31T01:26:53;99794.63;;;12.98;62.27
68656;BME280;55638;51.122;13.606;2023-07-31T01:30:16;99799.75;;;13.01;62.42
68656;BME280;55638;51.122;13.606;2023-07-31T01:31:53;99792.31;;;13.03;62.08
68656;BME280;55638;51.122;13.606;2023-07-31T01:33:27;99796.72;;;13.04;62.34
68656;BME280;55638;51.122;13.606;2023-07-31T01:34:59;99794.69;;;13.06;62.43
68656;BME280;55638;51.122;13.606;2023-07-31T01:36:32;99788.31;;;13.07;62.74
68656;BME280;55638;51.122;13.606;2023-07-31T01:38:04;99794.41;;;13.09;62.33
68656;BME280;55638;51.122;13.606;2023-07-31T01:39:36;99784.41;;;13.10;62.39
68656;BME280;55638;51.122;13.606;2023-07-31T01:41:08;99786.81;;;13.13;62.74
68656;BME280;55638;51.122;13.606;2023-07-31T01:42:40;99783.81;;;13.16;62.58
68656;BME280;55638;51.122;13.606;2023-07-31T01:44:12;99781.50;;;13.21;62.65
68656;BME280;55638;51.122;13.606;2023-07-31T01:45:44;99789.44;;;13.22;62.71
68656;BME280;55638;51.122;13.606;2023-07-31T01:47:16;99792.69;;;13.26;62.60
68656;BME280;55638;51.122;13.606;2023-07-31T01:48:48;99793.09;;;13.31;62.71
68656;BME280;55638;51.122;13.606;2023-07-31T01:50:20;99790.06;;;13.34;62.38
68656;BME280;55638;51.122;13.606;2023-07-31T01:51:52;99778.75;;;13.39;62.24
68656;BME280;55638;51.122;13.606;2023-07-31T01:53:24;99774.91;;;13.41;62.05
68656;BME280;55638;51.122;13.606;2023-07-31T01:54:56;99781.84;;;13.44;61.79
68656;BME280;55638;51.122;13.606;2023-07-31T01:56:28;99777.81;;;13.48;61.94
68656;BME280;55638;51.122;13.606;2023-07-31T01:58:00;99776.66;;;13.51;61.86
68656;BME280;55638;51.122;13.606;2023-07-31T01:59:32;99777.19;;;13.54;61.93
68656;BME280;55638;51.122;13.606;2023-07-31T02:01:04;99784.00;;;13.58;61.90
68656;BME280;55638;51.122;13.606;2023-07-31T02:02:38;99774.56;;;13.62;61.82
68656;BME280;55638;51.122;13.606;2023-07-31T02:04:10;99776.25;;;13.63;61.88
68656;BME280;55638;51.122;13.606;2023-07-31T02:05:46;99774.78;;;13.69;61.18
68656;BME280;55638;51.122;13.606;2023-07-31T02:07:18;99771.63;;;13.74;61.55
68656;BME280;55638;51.122;13.606;2023-07-31T02:08:50;99773.00;;;13.78;61.71
68656;BME280;55638;51.122;13.606;2023-07-31T02:10:23;99778.78;;;13.83;61.91
68656;BME280;55638;51.122;13.606;2023-07-31T02:11:55;99766.63;;;13.87;61.39
68656;BME280;55638;51.122;13.606;2023-07-31T02:13:27;99771.56;;;13.91;61.52
68656;BME280;55638;51.122;13.606;2023-07-31T02:14:59;99774.50;;;13.98;61.70
68656;BME280;55638;51.122;13.606;2023-07-31T02:16:31;99760.63;;;14.01;61.53
68656;BME280;55638;51.122;13.606;2023-07-31T02:18:05;99765.53;;;14.06;61.32
68656;BME280;55638;51.122;13.606;2023-07-31T02:19:38;99768.28;;;14.14;61.52
68656;BME280;55638;51.122;13.606;2023-07-31T02:21:10;99765.25;;;14.17;61.19
68656;BME280;55638;51.122;13.606;2023-07-31T02:22:42;99769.19;;;14.23;60.92
68656;BME280;55638;51.122;13.606;2023-07-31T02:24:14;99766.16;;;14.26;60.70
68656;BME280;55638;51.122;13.606;2023-07-31T02:25:46;99760.41;;;14.29;60.65
68656;BME280;55638;51.122;13.606;2023-07-31T02:27:19;99760.78;;;14.34;60.50
68656;BME280;55638;51.122;13.606;2023-07-31T02:28:51;99758.59;;;14.37;60.68
68656;BME280;55638;51.122;13.606;2023-07-31T02:30:22;99763.50;;;14.42;60.45
68656;BME280;55638;51.122;13.606;2023-07-31T02:31:54;99756.91;;;14.45;60.03
68656;BME280;55638;51.122;13.606;2023-07-31T02:33:26;99755.41;;;14.50;60.21
68656;BME280;55638;51.122;13.606;2023-07-31T02:34:59;99755.94;;;14.54;60.29
68656;BME280;55638;51.122;13.606;2023-07-31T02:36:30;99757.63;;;14.55;59.76
68656;BME280;55638;51.122;13.606;2023-07-31T02:38:02;99752.91;;;14.57;59.86
68656;BME280;55638;51.122;13.606;2023-07-31T02:39:34;99758.84;;;14.60;59.65
68656;BME280;55638;51.122;13.606;2023-07-31T02:41:06;99756.97;;;14.61;59.32
68656;BME280;55638;51.122;13.606;2023-07-31T02:42:38;99760.22;;;14.65;59.57
68656;BME280;55638;51.122;13.606;2023-07-31T02:44:10;99757.38;;;14.66;59.35
68656;BME280;55638;51.122;13.606;2023-07-31T02:45:45;99759.06;;;14.67;59.23
68656;BME280;55638;51.122;13.606;2023-07-31T02:47:17;99762.44;;;14.69;58.88
68656;BME280;55638;51.122;13.606;2023-07-31T02:48:49;99763.31;;;14.70;59.18
68656;BME280;55638;51.122;13.606;2023-07-31T02:50:21;99762.97;;;14.73;58.92
68656;BME280;55638;51.122;13.606;2023-07-31T02:51:53;99760.09;;;14.74;59.10
68656;BME280;55638;51.122;13.606;2023-07-31T02:53:25;99763.50;;;14.76;58.89
68656;BME280;55638;51.122;13.606;2023-07-31T02:54:58;99763.31;;;14.78;58.80
68656;BME280;55638;51.122;13.606;2023-07-31T02:56:30;99756.00;;;14.78;58.64
68656;BME280;55638;51.122;13.606;2023-07-31T02:58:02;99752.31;;;14.79;58.72
68656;BME280;55638;51.122;13.606;2023-07-31T02:59:34;99755.03;;;14.79;58.76
68656;BME280;55638;51.122;13.606;2023-07-31T03:01:06;99761.09;;;14.81;58.57
68656;BME280;55638;51.122;13.606;2023-07-31T03:02:38;99758.41;;;14.81;58.54
68656;BME280;55638;51.122;13.606;2023-07-31T03:04:10;99760.78;;;14.84;58.64
68656;BME280;55638;51.122;13.606;2023-07-31T03:05:42;99765.19;;;14.85;58.84
68656;BME280;55638;51.122;13.606;2023-07-31T03:07:14;99769.44;;;14.88;58.59
68656;BME280;55638;51.122;13.606;2023-07-31T03:08:46;99764.84;;;14.89;58.52
68656;BME280;55638;51.122;13.606;2023-07-31T03:10:19;99764.69;;;14.90;58.59
68656;BME280;55638;51.122;13.606;2023-07-31T03:11:51;99768.25;;;14.91;58.28
68656;BME280;55638;51.122;13.606;2023-07-31T03:13:23;99765.38;;;14.92;58.66
68656;BME280;55638;51.122;13.606;2023-07-31T03:14:55;99778.78;;;14.94;58.36
68656;BME280;55638;51.122;13.606;2023-07-31T03:16:27;99778.59;;;14.95;58.39
68656;BME280;55638;51.122;13.606;2023-07-31T03:17:59;99771.34;;;14.96;58.47
68656;BME280;55638;51.122;13.606;2023-07-31T03:19:32;99777.28;;;14.99;58.55
68656;BME280;55638;51.122;13.606;2023-07-31T03:21:04;99772.69;;;15.00;58.35
68656;BME280;55638;51.122;13.606;2023-07-31T03:22:36;99777.09;;;15.01;58.57
68656;BME280;55638;51.122;13.606;2023-07-31T03:24:08;99773.38;;;15.02;58.69
68656;BME280;55638;51.122;13.606;2023-07-31T03:25:54;99774.22;;;15.02;58.82
68656;BME280;55638;51.122;13.606;2023-07-31T03:27:26;99777.59;;;15.04;58.48
68656;BME280;55638;51.122;13.606;2023-07-31T03:28:58;99775.56;;;15.06;58.84
68656;BME280;55638;51.122;13.606;2023-07-31T03:30:30;99779.00;;;15.08;58.75
68656;BME280;55638;51.122;13.606;2023-07-31T03:32:03;99775.25;;;15.10;58.76
68656;BME280;55638;51.122;13.606;2023-07-31T03:33:35;99786.09;;;15.10;58.65
68656;BME280;55638;51.122;13.606;2023-07-31T03:35:07;99781.53;;;15.10;58.89
68656;BME280;55638;51.122;13.606;2023-07-31T03:36:39;99782.22;;;15.12;58.96
68656;BME280;55638;51.122;13.606;2023-07-31T03:38:11;99781.38;;;15.12;59.07
68656;BME280;55638;51.122;13.606;2023-07-31T03:39:43;99773.22;;;15.12;58.94
68656;BME280;55638;51.122;13.606;2023-07-31T03:41:15;99774.06;;;15.12;59.26
68656;BME280;55638;51.122;13.606;2023-07-31T03:42:48;99783.22;;;15.11;59.38
68656;BME280;55638;51.122;13.606;2023-07-31T03:44:20;99773.22;;;15.12;59.51
68656;BME280;55638;51.122;13.606;2023-07-31T03:45:53;99761.34;;;15.13;59.23
68656;BME280;55638;51.122;13.606;2023-07-31T03:47:25;99772.19;;;15.13;59.68
68656;BME280;55638;51.122;13.606;2023-07-31T03:48:57;99773.22;;;15.12;59.55
68656;BME280;55638;51.122;13.606;2023-07-31T03:50:29;99768.78;;;15.11;59.41
68656;BME280;55638;51.122;13.606;2023-07-31T03:52:01;99773.38;;;15.10;59.42
68656;BME280;55638;51.122;13.606;2023-07-31T03:53:32;99775.25;;;15.10;59.70
68656;BME280;55638;51.122;13.606;2023-07-31T03:55:05;99774.22;;;15.11;59.69
68656;BME280;55638;51.122;13.606;2023-07-31T03:56:37;99779.00;;;15.08;59.91
68656;BME280;55638;51.122;13.606;2023-07-31T03:58:10;99772.88;;;15.06;59.96
68656;BME280;55638;51.122;13.606;2023-07-31T03:59:42;99774.88;;;15.04;59.99
68656;BME280;55638;51.122;13.606;2023-07-31T04:01:14;99781.00;;;15.06;59.98
68656;BME280;55638;51.122;13.606;2023-07-31T04:02:46;99771.19;;;15.05;60.15
68656;BME280;55638;51.122;13.606;2023-07-31T04:04:18;99776.75;;;15.04;60.03
68656;BME280;55638;51.122;13.606;2023-07-31T04:05:50;99765.06;;;15.03;60.24
68656;BME280;55638;51.122;13.606;2023-07-31T04:07:22;99767.94;;;15.02;60.20
68656;BME280;55638;51.122;13.606;2023-07-31T04:08:54;99767.25;;;15.00;60.62
68656;BME280;55638;51.122;13.606;2023-07-31T04:10:26;99759.13;;;15.00;60.38
68656;BME280;55638;51.122;13.606;2023-07-31T04:11:58;99764.53;;;15.00;60.24
68656;BME280;55638;51.122;13.606;2023-07-31T04:13:30;99757.59;;;14.97;60.25
68656;BME280;55638;51.122;13.606;2023-07-31T04:15:02;99753.19;;;14.96;60.50
68656;BME280;55638;51.122;13.606;2023-07-31T04:16:34;99755.91;;;14.96;60.38
68656;BME280;55638;51.122;13.606;2023-07-31T04:18:07;99763.53;;;14.93;60.52
68656;BME280;55638;51.122;13.606;2023-07-31T04:19:39;99756.38;;;14.92;60.44
68656;BME280;55638;51.122;13.606;2023-07-31T04:21:10;99747.56;;;14.90;60.51
68656;BME280;55638;51.122;13.606;2023-07-31T04:22:43;99748.75;;;14.87;60.63
68656;BME280;55638;51.122;13.606;2023-07-31T04:24:14;99747.06;;;14.86;60.90
68656;BME280;55638;51.122;13.606;2023-07-31T04:25:46;99744.50;;;14.84;60.78
68656;BME280;55638;51.122;13.606;2023-07-31T04:27:18;99742.97;;;14.82;61.05
68656;BME280;55638;51.122;13.606;2023-07-31T04:28:50;99746.69;;;14.81;61.19
68656;BME280;55638;51.122;13.606;2023-07-31T04:30:22;99735.00;;;14.80;61.04
68656;BME280;55638;51.122;13.606;2023-07-31T04:31:54;99732.44;;;14.79;61.30
68656;BME280;55638;51.122;13.606;2023-07-31T04:33:26;99733.31;;;14.79;61.25
68656;BME280;55638;51.122;13.606;2023-07-31T04:34:58;99729.72;;;14.79;61.19
68656;BME280;55638;51.122;13.606;2023-07-31T04:36:30;99737.88;;;14.79;61.31
68656;BME280;55638;51.122;13.606;2023-07-31T04:38:02;99722.63;;;14.78;61.46
68656;BME280;55638;51.122;13.606;2023-07-31T04:39:33;99728.72;;;14.80;61.55
68656;BME280;55638;51.122;13.606;2023-07-31T04:41:05;99732.28;;;14.80;61.75
68656;BME280;55638;51.122;13.606;2023-07-31T04:42:37;99723.31;;;14.80;61.96
68656;BME280;55638;51.122;13.606;2023-07-31T04:44:09;99728.56;;;14.81;61.82
68656;BME280;55638;51.122;13.606;2023-07-31T04:45:45;99723.13;;;14.81;61.78
68656;BME280;55638;51.122;13.606;2023-07-31T04:47:19;99722.97;;;14.83;61.75
68656;BME280;55638;51.122;13.606;2023-07-31T04:48:51;99717.53;;;14.83;61.73
68656;BME280;55638;51.122;13.606;2023-07-31T04:50:23;99721.75;;;14.85;61.83
68656;BME280;55638;51.122;13.606;2023-07-31T04:51:55;99713.63;;;14.85;61.79
68656;BME280;55638;51.122;13.606;2023-07-31T04:53:26;99717.03;;;14.88;61.67
68656;BME280;55638;51.122;13.606;2023-07-31T04:54:59;99718.72;;;14.89;61.88
68656;BME280;55638;51.122;13.606;2023-07-31T04:56:31;99719.59;;;14.89;61.96
68656;BME280;55638;51.122;13.606;2023-07-31T04:58:04;99715.00;;;14.90;61.73
68656;BME280;55638;51.122;13.606;2023-07-31T04:59:36;99717.53;;;14.91;61.99
68656;BME280;55638;51.122;13.606;2023-07-31T05:01:08;99723.66;;;14.93;62.13
68656;BME280;55638;51.122;13.606;2023-07-31T05:02:40;99717.22;;;14.94;61.78
68656;BME280;55638;51.122;13.606;2023-07-31T05:04:16;99714.34;;;14.96;61.79
68656;BME280;55638;51.122;13.606;2023-07-31T05:05:48;99710.59;;;14.97;61.85
68656;BME280;55638;51.122;13.606;2023-07-31T05:07:20;99718.56;;;14.98;62.04
68656;BME280;55638;51.122;13.606;2023-07-31T05:08:52;99717.56;;;14.99;61.78
68656;BME280;55638;51.122;13.606;2023-07-31T05:10:23;99702.97;;;15.00;61.75
68656;BME280;55638;51.122;13.606;2023-07-31T05:11:55;99703.81;;;15.01;61.94
68656;BME280;55638;51.122;13.606;2023-07-31T05:13:27;99703.81;;;15.01;61.79
68656;BME280;55638;51.122;13.606;2023-07-31T05:14:59;99709.09;;;15.02;62.01
68656;BME280;55638;51.122;13.606;2023-07-31T05:16:31;99709.75;;;15.04;61.72
68656;BME280;55638;51.122;13.606;2023-07-31T05:18:03;99707.72;;;15.06;62.06
68656;BME280;55638;51.122;13.606;2023-07-31T05:19:35;99706.53;;;15.09;61.85
68656;BME280;55638;51.122;13.606;2023-07-31T05:21:07;99709.91;;;15.11;61.70
68656;BME280;55638;51.122;13.606;2023-07-31T05:22:39;99693.47;;;15.13;61.86
68656;BME280;55638;51.122;13.606;2023-07-31T05:24:11;99708.41;;;15.17;61.96
68656;BME280;55638;51.122;13.606;2023-07-31T05:25:43;99704.66;;;15.18;61.83
68656;BME280;55638;51.122;13.606;2023-07-31T05:27:15;99703.66;;;15.19;61.74
68656;BME280;55638;51.122;13.606;2023-07-31T05:28:50;99701.44;;;15.22;62.15
68656;BME280;55638;51.122;13.606;2023-07-31T05:30:22;99690.25;;;15.25;61.97
68656;BME280;55638;51.122;13.606;2023-07-31T05:31:54;99703.47;;;15.28;61.88
68656;BME280;55638;51.122;13.606;2023-07-31T05:33:26;99695.16;;;15.30;61.92
68656;BME280;55638;51.122;13.606;2023-07-31T05:34:58;99702.97;;;15.33;61.66
68656;BME280;55638;51.122;13.606;2023-07-31T05:36:30;99699.06;;;15.36;62.09
68656;BME280;55638;51.122;13.606;2023-07-31T05:38:02;99707.72;;;15.39;61.96
68656;BME280;55638;51.122;13.606;2023-07-31T05:39:34;99706.53;;;15.42;61.90
68656;BME280;55638;51.122;13.606;2023-07-31T05:41:06;99708.72;;;15.46;61.89
68656;BME280;55638;51.122;13.606;2023-07-31T05:42:37;99700.22;;;15.49;61.52
68656;BME280;55638;51.122;13.606;2023-07-31T05:44:10;99703.47;;;15.53;61.60
68656;BME280;55638;51.122;13.606;2023-07-31T05:45:42;99704.16;;;15.55;61.86
68656;BME280;55638;51.122;13.606;2023-07-31T05:47:14;99709.25;;;15.58;61.72
68656;BME280;55638;51.122;13.606;2023-07-31T05:48:46;99701.75;;;15.60;61.67
68656;BME280;55638;51.122;13.606;2023-07-31T05:50:18;99706.69;;;15.65;61.74
68656;BME280;55638;51.122;13.606;2023-07-31T05:51:50;99705.31;;;15.69;61.69
68656;BME280;55638;51.122;13.606;2023-07-31T05:53:22;99701.22;;;15.73;61.64
68656;BME280;55638;51.122;13.606;2023-07-31T05:54:54;99704.63;;;15.75;61.73
68656;BME280;55638;51.122;13.606;2023-07-31T05:56:27;99702.41;;;15.78;61.54
68656;BME280;55638;51.122;13.606;2023-07-31T05:57:58;99703.94;;;15.81;61.51
68656;BME280;55638;51.122;13.606;2023-07-31T05:59:32;99703.59;;;15.84;61.53
68656;BME280;55638;51.122;13.606;2023-07-31T06:01:04;99699.47;;;15.88;61.63
68656;BME280;55638;51.122;13.606;2023-07-31T06:02:36;99696.41;;;15.91;61.47
68656;BME280;55638;51.122;13.606;2023-07-31T06:04:08;99693.34;;;15.94;61.41
68656;BME280;55638;51.122;13.606;2023-07-31T06:05:40;99695.03;;;15.95;61.69
68656;BME280;55638;51.122;13.606;2023-07-31T06:07:12;99691.13;;;15.98;61.30
68656;BME280;55638;51.122;13.606;2023-07-31T06:08:44;99693.50;;;16.01;61.31
68656;BME280;55638;51.122;13.606;2023-07-31T06:10:16;99696.91;;;16.03;61.00
68656;BME280;55638;51.122;13.606;2023-07-31T06:11:48;99682.28;;;16.04;61.30
68656;BME280;55638;51.122;13.606;2023-07-31T06:13:20;99683.78;;;16.07;61.10
68656;BME280;55638;51.122;13.606;2023-07-31T06:14:52;99694.66;;;16.07;61.27
68656;BME280;55638;51.122;13.606;2023-07-31T06:16:25;99692.59;;;16.09;61.23
68656;BME280;55638;51.122;13.606;2023-07-31T06:17:57;99689.72;;;16.10;61.47
68656;BME280;55638;51.122;13.606;2023-07-31T06:19:29;99693.97;;;16.13;61.06
68656;BME280;55638;51.122;13.606;2023-07-31T06:21:01;99692.75;;;16.15;61.25
68656;BME280;55638;51.122;13.606;2023-07-31T06:22:33;99687.31;;;16.15;61.02
68656;BME280;55638;51.122;13.606;2023-07-31T06:24:05;99686.13;;;16.18;61.01
68656;BME280;55638;51.122;13.606;2023-07-31T06:25:37;99699.34;;;16.21;61.19
68656;BME280;55638;51.122;13.606;2023-07-31T06:27:09;99695.59;;;16.22;60.96
68656;BME280;55638;51.122;13.606;2023-07-31T06:28:41;99694.41;;;16.24;61.14
68656;BME280;55638;51.122;13.606;2023-07-31T06:30:13;99688.63;;;16.28;61.21
68656;BME280;55638;51.122;13.606;2023-07-31T06:31:45;99699.13;;;16.31;60.90
68656;BME280;55638;51.122;13.606;2023-07-31T06:33:17;99691.16;;;16.29;60.90
68656;BME280;55638;51.122;13.606;2023-07-31T06:34:49;99692.50;;;16.33;61.06
68656;BME280;55638;51.122;13.606;2023-07-31T06:36:21;99694.19;;;16.34;60.97
68656;BME280;55638;51.122;13.606;2023-07-31T06:37:53;99696.06;;;16.34;60.62
68656;BME280;55638;51.122;13.606;2023-07-31T06:39:25;99695.94;;;16.35;61.02
68656;BME280;55638;51.122;13.606;2023-07-31T06:40:57;99695.94;;;16.35;60.76
68656;BME280;55638;51.122;13.606;2023-07-31T06:42:29;99682.16;;;16.37;60.60
68656;BME280;55638;51.122;13.606;2023-07-31T06:44:01;99685.72;;;16.37;60.59
68656;BME280;55638;51.122;13.606;2023-07-31T06:45:36;99684.66;;;16.38;60.64
68656;BME280;55638;51.122;13.606;2023-07-31T06:47:09;99682.63;;;16.40;60.89
68656;BME280;55638;51.122;13.606;2023-07-31T06:48:41;99685.34;;;16.40;61.10
68656;BME280;55638;51.122;13.606;2023-07-31T06:50:13;99680.75;;;16.41;61.17
68656;BME280;55638;51.122;13.606;2023-07-31T06:51:45;99679.41;;;16.45;61.17
68656;BME280;55638;51.122;13.606;2023-07-31T06:53:17;99684.84;;;16.45;61.00
68656;BME280;55638;51.122;13.606;2023-07-31T06:55:02;99690.28;;;16.45;61.03
68656;BME280;55638;51.122;13.606;2023-07-31T06:56:35;99692.44;;;16.50;61.35
68656;BME280;55638;51.122;13.606;2023-07-31T06:58:11;99693.97;;;16.52;61.11
68656;BME280;55638;51.122;13.606;2023-07-31T06:59:43;99689.19;;;16.54;61.24
68656;BME280;55638;51.122;13.606;2023-07-31T07:01:15;99698.84;;;16.57;61.36
68656;BME280;55638;51.122;13.606;2023-07-31T07:02:47;99693.06;;;16.60;61.26
68656;BME280;55638;51.122;13.606;2023-07-31T07:04:19;99683.50;;;16.64;61.43
68656;BME280;55638;51.122;13.606;2023-07-31T07:05:51;99687.56;;;16.68;61.33
68656;BME280;55638;51.122;13.606;2023-07-31T07:07:23;99692.66;;;16.71;60.91
68656;BME280;55638;51.122;13.606;2023-07-31T07:08:55;99695.69;;;16.76;61.10
68656;BME280;55638;51.122;13.606;2023-07-31T07:10:27;99693.91;;;16.83;60.65
68656;BME280;55638;51.122;13.606;2023-07-31T07:11:59;99688.31;;;16.85;60.76
68656;BME280;55638;51.122;13.606;2023-07-31T07:13:31;99688.59;;;16.90;60.92
68656;BME280;55638;51.122;13.606;2023-07-31T07:15:03;99697.91;;;16.96;60.61
68656;BME280;55638;51.122;13.606;2023-07-31T07:16:36;99699.25;;;17.00;60.76
68656;BME280;55638;51.122;13.606;2023-07-31T07:18:09;99699.34;;;17.06;60.76
68656;BME280;55638;51.122;13.606;2023-07-31T07:19:42;99696.28;;;17.09;60.71
68656;BME280;55638;51.122;13.606;2023-07-31T07:21:14;99694.56;;;17.16;60.73
68656;BME280;55638;51.122;13.606;2023-07-31T07:22:47;99695.69;;;17.22;60.35
68656;BME280;55638;51.122;13.606;2023-07-31T07:24:19;99691.38;;;17.28;60.45
68656;BME280;55638;51.122;13.606;2023-07-31T07:25:51;99689.63;;;17.35;60.17
68656;BME280;55638;51.122;13.606;2023-07-31T07:27:25;99693.47;;;17.40;59.85
68656;BME280;55638;51.122;13.606;2023-07-31T07:28:57;99688.97;;;17.48;60.11
68656;BME280;55638;51.122;13.606;2023-07-31T07:30:32;99689.91;;;17.55;59.98
68656;BME280;55638;51.122;13.606;2023-07-31T07:32:04;99693.63;;;17.62;59.75
68656;BME280;55638;51.122;13.606;2023-07-31T07:33:36;99694.72;;;17.68;59.58
68656;BME280;55638;51.122;13.606;2023-07-31T07:35:08;99690.06;;;17.76;59.74
68656;BME280;55638;51.122;13.606;2023-07-31T07:36:40;99686.19;;;17.85;59.48
68656;BME280;55638;51.122;13.606;2023-07-31T07:38:14;99683.41;;;17.94;59.20
68656;BME280;55638;51.122;13.606;2023-07-31T07:39:46;99678.50;;;18.04;59.10
68656;BME280;55638;51.122;13.606;2023-07-31T07:41:18;99675.47;;;18.14;59.37
68656;BME280;55638;51.122;13.606;2023-07-31T07:42:50;99681.22;;;18.19;58.17
68656;BME280;55638;51.122;13.606;2023-07-31T07:44:22;99682.81;;;18.28;58.50
68656;BME280;55638;51.122;13.606;2023-07-31T07:45:54;99692.75;;;18.36;58.50
68656;BME280;55638;51.122;13.606;2023-07-31T07:47:26;99701.03;;;18.42;58.53
68656;BME280;55638;51.122;13.606;2023-07-31T07:49:00;99703.00;;;18.48;58.10
68656;BME280;55638;51.122;13.606;2023-07-31T07:50:32;99699.50;;;18.54;58.20
68656;BME280;55638;51.122;13.606;2023-07-31T07:52:05;99684.41;;;18.59;58.34
68656;BME280;55638;51.122;13.606;2023-07-31T07:53:37;99692.88;;;18.64;57.97
68656;BME280;55638;51.122;13.606;2023-07-31T07:55:09;99692.97;;;18.70;57.55
68656;BME280;55638;51.122;13.606;2023-07-31T07:56:41;99701.63;;;18.74;57.50
68656;BME280;55638;51.122;13.606;2023-07-31T07:58:13;99698.50;;;18.77;57.37
68656;BME280;55638;51.122;13.606;2023-07-31T07:59:45;99703.59;;;18.80;57.11
68656;BME280;55638;51.122;13.606;2023-07-31T08:01:17;99691.22;;;18.84;56.99
68656;BME280;55638;51.122;13.606;2023-07-31T08:02:49;99697.16;;;18.88;57.03
68656;BME280;55638;51.122;13.606;2023-07-31T08:04:21;99696.38;;;18.94;56.75
68656;BME280;55638;51.122;13.606;2023-07-31T08:05:58;99706.63;;;18.92;55.95
68656;BME280;55638;51.122;13.606;2023-07-31T08:07:30;99705.03;;;18.97;57.16
68656;BME280;55638;51.122;13.606;2023-07-31T08:09:02;99703.59;;;19.01;56.52
68656;BME280;55638;51.122;13.606;2023-07-31T08:10:38;99709.13;;;19.08;56.35
68656;BME280;55638;51.122;13.606;2023-07-31T08:12:10;99703.91;;;19.13;56.69